Leonie — PHLE — position and weather

sailwx.info

Track history (hours):
 
Tides and Currents Weather Stations Pressure Air Temp Water Temp Dewpoint Dewpoint Depression Visibility Wind Speed Wind Dir Waves Ship Positions

Leonie

Last reported at 2014-Oct-26 06:31 UTC. Time now 2014-Oct-26 07:05 UTC.
Position N 55°19' E 012°27'.

Length 90 m; draft 3.5 m.

Type: Cargo ship. MMSI: 244772000.

Date/timePositionNaut miles runAvg speedWind from/ knotsBaromVisibWave heightAir tempDewpointWater temp
2014-Oct-26 06:31N 55°19' E 012°27'0 0.5
2014-Oct-26 05:29N 55°19' E 012°28'0 0.0
2014-Oct-26 04:32N 55°19' E 012°28'0 0.0
2014-Oct-26 03:32N 55°19' E 012°28'0 0.0
2014-Oct-26 02:32N 55°19' E 012°28'0 0.0
2014-Oct-26 01:32N 55°19' E 012°28'0 0.0
2014-Oct-26 00:32N 55°19' E 012°28'0 0.0
2014-Oct-25 23:32N 55°19' E 012°28'0 0.0
2014-Oct-25 22:32N 55°19' E 012°28'0 0.0
2014-Oct-25 21:32N 55°19' E 012°28'0 0.0
2014-Oct-25 20:32N 55°19' E 012°28'0 0.0
2014-Oct-25 19:17N 55°19' E 012°28'0 0.0
2014-Oct-25 18:32N 55°19' E 012°28'0 0.0
2014-Oct-25 17:29N 55°19' E 012°28'0 0.0
2014-Oct-25 16:29N 55°19' E 012°28'0 0.0
2014-Oct-25 15:29N 55°19' E 012°28'0 0.0
2014-Oct-25 14:29N 55°19' E 012°28'0 0.0
2014-Oct-25 13:32N 55°19' E 012°28'0 0.0
2014-Oct-25 12:32N 55°19' E 012°28'2 2.1
2014-Oct-25 11:33N 55°21' E 012°28'7 6.7
2014-Oct-25 10:32N 55°26' E 012°19'0 0.0
2014-Oct-25 09:32N 55°26' E 012°19'0 0.0
2014-Oct-25 08:29N 55°26' E 012°19'0 0.0
2014-Oct-25 07:32N 55°26' E 012°19'0 0.0
2014-Oct-25 06:32N 55°26' E 012°19'0 0.0
2014-Oct-25 05:32N 55°26' E 012°19'0 0.0
2014-Oct-25 04:32N 55°26' E 012°19'0 0.0
2014-Oct-25 03:23N 55°26' E 012°19'0 0.0
2014-Oct-25 02:29N 55°26' E 012°19'0 0.0
2014-Oct-25 01:32N 55°26' E 012°19'0 0.0
2014-Oct-25 00:32N 55°26' E 012°19'0 0.0
2014-Oct-24 23:32N 55°26' E 012°19'0 0.0
2014-Oct-24 22:29N 55°26' E 012°19'0 0.0
2014-Oct-24 21:32N 55°26' E 012°19'0 0.0
2014-Oct-24 20:29N 55°26' E 012°19'0 0.0
2014-Oct-24 19:26N 55°26' E 012°19'0 0.0
2014-Oct-24 18:32N 55°26' E 012°19'0 0.0
2014-Oct-24 17:32N 55°26' E 012°19'0 0.0
2014-Oct-24 16:32N 55°26' E 012°19'0 0.0
2014-Oct-24 15:32N 55°26' E 012°19'0 0.0
2014-Oct-24 14:29N 55°26' E 012°19'0 0.0
2014-Oct-24 13:32N 55°26' E 012°19'0 0.0
2014-Oct-24 12:32N 55°26' E 012°19'0 0.0
2014-Oct-24 11:29N 55°26' E 012°19'0 0.0
2014-Oct-24 10:32N 55°26' E 012°19'0 0.0
2014-Oct-24 09:29N 55°26' E 012°19'0 0.0
2014-Oct-24 08:29N 55°26' E 012°19'5 5.5
2014-Oct-24 07:34N 55°23' E 012°27'4 3.7
2014-Oct-24 06:32N 55°19' E 012°28'0 0.2
2014-Oct-24 05:33N 55°19' E 012°28'0 0.3
2014-Oct-24 04:23N 55°20' E 012°28'0 0.0
2014-Oct-24 03:32N 55°20' E 012°28'0 0.0
2014-Oct-24 02:32N 55°20' E 012°28'0 0.1
2014-Oct-24 01:32N 55°20' E 012°28'0 0.1
2014-Oct-24 00:33N 55°19' E 012°28'8 7.6
2014-Oct-23 23:33N 55°12' E 012°30'3511.5
2014-Oct-23 20:33N 54°39' E 012°14'1111.0
2014-Oct-23 19:30N 54°30' E 012°01'3812.1
2014-Oct-23 16:20N 54°33' E 010°55'1012.7
2014-Oct-23 15:33N 54°31' E 010°39'1212.3
2014-Oct-23 14:33N 54°29' E 010°18'9 8.6
2014-Oct-23 13:33N 54°22' E 010°09'2 2.3
2014-Oct-23 12:33N 54°22' E 010°05'8 8.1
2014-Oct-23 11:33N 54°22' E 009°51'7 7.3
2014-Oct-23 10:33N 54°18' E 009°40'0 0.0
2014-Oct-23 08:26N 54°18' E 009°40'0 0.0
2014-Oct-23 07:32N 54°18' E 009°40'0 0.0
2014-Oct-23 06:26N 54°18' E 009°40'0 0.0
2014-Oct-23 05:32N 54°18' E 009°40'0 0.0
2014-Oct-23 04:32N 54°18' E 009°40'0 0.0
2014-Oct-23 03:32N 54°18' E 009°40'0 0.0
2014-Oct-23 02:20N 54°18' E 009°40'0 0.0
2014-Oct-23 01:32N 54°18' E 009°40'0 0.0
2014-Oct-23 00:32N 54°18' E 009°40'0 0.0
2014-Oct-22 23:32N 54°18' E 009°40'0 0.0
2014-Oct-22 22:32N 54°18' E 009°40'0 0.0
2014-Oct-22 21:32N 54°18' E 009°40'0 0.0
2014-Oct-22 20:32N 54°18' E 009°40'0 0.0
2014-Oct-22 19:32N 54°18' E 009°40'0 0.0
2014-Oct-22 18:32N 54°18' E 009°40'0 0.0
2014-Oct-22 17:32N 54°18' E 009°40'0 0.0
2014-Oct-22 16:32N 54°18' E 009°40'0 0.0
2014-Oct-22 15:32N 54°18' E 009°40'0 0.0
2014-Oct-22 14:32N 54°18' E 009°40'0 0.0
2014-Oct-22 13:26N 54°18' E 009°40'0 0.0
2014-Oct-22 12:32N 54°18' E 009°40'0 0.0
2014-Oct-22 11:32N 54°18' E 009°40'0 0.0
2014-Oct-22 10:20N 54°18' E 009°40'0 0.0
2014-Oct-22 09:32N 54°18' E 009°40'0 0.0
2014-Oct-22 08:20N 54°18' E 009°40'0 0.0
2014-Oct-22 07:32N 54°18' E 009°40'0 0.0
2014-Oct-22 06:32N 54°18' E 009°40'0 0.0
2014-Oct-22 05:26N 54°18' E 009°40'0 0.0
2014-Oct-22 04:26N 54°18' E 009°40'0 0.0
2014-Oct-22 03:32N 54°18' E 009°40'0 0.0
2014-Oct-22 02:32N 54°18' E 009°40'0 0.0
2014-Oct-22 01:32N 54°18' E 009°40'0 0.0
2014-Oct-22 00:32N 54°18' E 009°40'0 0.0
2014-Oct-21 23:32N 54°18' E 009°40'0 0.0
2014-Oct-21 21:32N 54°18' E 009°40'0 0.0
2014-Oct-21 20:32N 54°18' E 009°40'0 0.0
2014-Oct-21 19:32N 54°18' E 009°40'0 0.0
2014-Oct-21 18:32N 54°18' E 009°40'0 0.0
2014-Oct-21 17:26N 54°18' E 009°40'0 0.0
2014-Oct-21 16:32N 54°18' E 009°40'0 0.0
2014-Oct-21 15:33N 54°18' E 009°40'6 6.1
2014-Oct-21 14:33N 54°22' E 009°48'8 7.6
2014-Oct-21 13:33N 54°22' E 010°01'4 4.3
2014-Oct-21 12:34N 54°22' E 010°09'6 6.3
2014-Oct-21 11:34N 54°27' E 010°14'1010.0
2014-Oct-21 10:33N 54°31' E 010°30'1110.8
2014-Oct-21 09:31N 54°33' E 010°49'28 9.5
2014-Oct-21 06:33N 54°30' E 011°37'10 9.5
2014-Oct-21 05:33N 54°28' E 011°53'10 9.4
2014-Oct-21 04:32N 54°29' E 012°10'60 9.9
2014-Oct-20 22:28N 55°00' E 013°38'9 9.9
2014-Oct-20 21:33N 55°04' E 013°52'9 9.4
2014-Oct-20 20:33N 55°08' E 014°07'10 9.7
2014-Oct-20 19:33N 55°15' E 014°18'10 9.7
2014-Oct-20 18:33N 55°23' E 014°29'1010.0
2014-Oct-20 17:33N 55°30' E 014°42'10 9.7
2014-Oct-20 16:33N 55°34' E 014°57'9 9.2
2014-Oct-20 15:33N 55°39' E 015°11'10 9.3
2014-Oct-20 14:28N 55°44' E 015°27'11 9.5
2014-Oct-20 13:18N 55°49' E 015°44'12 9.6
2014-Oct-20 12:04N 55°55' E 016°02'5 9.7
2014-Oct-20 11:33N 55°58' E 016°10'10 9.7
2014-Oct-20 10:32N 56°03' E 016°25'  
Track history (hours):
 
Tides and Currents Weather Stations Pressure Air Temp Water Temp Dewpoint Dewpoint Depression Visibility Wind Speed Wind Dir Waves Ship Positions

Leonie

Last reported at 2014-Oct-26 06:31 UTC. Time now 2014-Oct-26 07:05 UTC.
Position N 55°19' E 012°27'.

Length 90 m; draft 3.5 m.

Type: Cargo ship. MMSI: 244772000.

Date/timePositionNaut miles runAvg speedWind from/ knotsBaromVisibWave heightAir tempDewpointWater temp
2014-Oct-26 06:31N 55°19' E 012°27'0 0.5
2014-Oct-26 05:29N 55°19' E 012°28'0 0.0
2014-Oct-26 04:32N 55°19' E 012°28'0 0.0
2014-Oct-26 03:32N 55°19' E 012°28'0 0.0
2014-Oct-26 02:32N 55°19' E 012°28'0 0.0
2014-Oct-26 01:32N 55°19' E 012°28'0 0.0
2014-Oct-26 00:32N 55°19' E 012°28'0 0.0
2014-Oct-25 23:32N 55°19' E 012°28'0 0.0
2014-Oct-25 22:32N 55°19' E 012°28'0 0.0
2014-Oct-25 21:32N 55°19' E 012°28'0 0.0
2014-Oct-25 20:32N 55°19' E 012°28'0 0.0
2014-Oct-25 19:17N 55°19' E 012°28'0 0.0
2014-Oct-25 18:32N 55°19' E 012°28'0 0.0
2014-Oct-25 17:29N 55°19' E 012°28'0 0.0
2014-Oct-25 16:29N 55°19' E 012°28'0 0.0
2014-Oct-25 15:29N 55°19' E 012°28'0 0.0
2014-Oct-25 14:29N 55°19' E 012°28'0 0.0
2014-Oct-25 13:32N 55°19' E 012°28'0 0.0
2014-Oct-25 12:32N 55°19' E 012°28'2 2.1
2014-Oct-25 11:33N 55°21' E 012°28'7 6.7
2014-Oct-25 10:32N 55°26' E 012°19'0 0.0
2014-Oct-25 09:32N 55°26' E 012°19'0 0.0
2014-Oct-25 08:29N 55°26' E 012°19'0 0.0
2014-Oct-25 07:32N 55°26' E 012°19'0 0.0
2014-Oct-25 06:32N 55°26' E 012°19'0 0.0
2014-Oct-25 05:32N 55°26' E 012°19'0 0.0
2014-Oct-25 04:32N 55°26' E 012°19'0 0.0
2014-Oct-25 03:23N 55°26' E 012°19'0 0.0
2014-Oct-25 02:29N 55°26' E 012°19'0 0.0
2014-Oct-25 01:32N 55°26' E 012°19'0 0.0
2014-Oct-25 00:32N 55°26' E 012°19'0 0.0
2014-Oct-24 23:32N 55°26' E 012°19'0 0.0
2014-Oct-24 22:29N 55°26' E 012°19'0 0.0
2014-Oct-24 21:32N 55°26' E 012°19'0 0.0
2014-Oct-24 20:29N 55°26' E 012°19'0 0.0
2014-Oct-24 19:26N 55°26' E 012°19'0 0.0
2014-Oct-24 18:32N 55°26' E 012°19'0 0.0
2014-Oct-24 17:32N 55°26' E 012°19'0 0.0
2014-Oct-24 16:32N 55°26' E 012°19'0 0.0
2014-Oct-24 15:32N 55°26' E 012°19'0 0.0
2014-Oct-24 14:29N 55°26' E 012°19'0 0.0
2014-Oct-24 13:32N 55°26' E 012°19'0 0.0
2014-Oct-24 12:32N 55°26' E 012°19'0 0.0
2014-Oct-24 11:29N 55°26' E 012°19'0 0.0
2014-Oct-24 10:32N 55°26' E 012°19'0 0.0
2014-Oct-24 09:29N 55°26' E 012°19'0 0.0
2014-Oct-24 08:29N 55°26' E 012°19'5 5.5
2014-Oct-24 07:34N 55°23' E 012°27'4 3.7
2014-Oct-24 06:32N 55°19' E 012°28'0 0.2
2014-Oct-24 05:33N 55°19' E 012°28'0 0.3
2014-Oct-24 04:23N 55°20' E 012°28'0 0.0
2014-Oct-24 03:32N 55°20' E 012°28'0 0.0
2014-Oct-24 02:32N 55°20' E 012°28'0 0.1
2014-Oct-24 01:32N 55°20' E 012°28'0 0.1
2014-Oct-24 00:33N 55°19' E 012°28'8 7.6
2014-Oct-23 23:33N 55°12' E 012°30'3511.5
2014-Oct-23 20:33N 54°39' E 012°14'1111.0
2014-Oct-23 19:30N 54°30' E 012°01'3812.1
2014-Oct-23 16:20N 54°33' E 010°55'1012.7
2014-Oct-23 15:33N 54°31' E 010°39'1212.3
2014-Oct-23 14:33N 54°29' E 010°18'9 8.6
2014-Oct-23 13:33N 54°22' E 010°09'2 2.3
2014-Oct-23 12:33N 54°22' E 010°05'8 8.1
2014-Oct-23 11:33N 54°22' E 009°51'7 7.3
2014-Oct-23 10:33N 54°18' E 009°40'0 0.0
2014-Oct-23 08:26N 54°18' E 009°40'0 0.0
2014-Oct-23 07:32N 54°18' E 009°40'0 0.0
2014-Oct-23 06:26N 54°18' E 009°40'0 0.0
2014-Oct-23 05:32N 54°18' E 009°40'0 0.0
2014-Oct-23 04:32N 54°18' E 009°40'0 0.0
2014-Oct-23 03:32N 54°18' E 009°40'0 0.0
2014-Oct-23 02:20N 54°18' E 009°40'0 0.0
2014-Oct-23 01:32N 54°18' E 009°40'0 0.0
2014-Oct-23 00:32N 54°18' E 009°40'0 0.0
2014-Oct-22 23:32N 54°18' E 009°40'0 0.0
2014-Oct-22 22:32N 54°18' E 009°40'0 0.0
2014-Oct-22 21:32N 54°18' E 009°40'0 0.0
2014-Oct-22 20:32N 54°18' E 009°40'0 0.0
2014-Oct-22 19:32N 54°18' E 009°40'0 0.0
2014-Oct-22 18:32N 54°18' E 009°40'0 0.0
2014-Oct-22 17:32N 54°18' E 009°40'0 0.0
2014-Oct-22 16:32N 54°18' E 009°40'0 0.0
2014-Oct-22 15:32N 54°18' E 009°40'0 0.0
2014-Oct-22 14:32N 54°18' E 009°40'0 0.0
2014-Oct-22 13:26N 54°18' E 009°40'0 0.0
2014-Oct-22 12:32N 54°18' E 009°40'0 0.0
2014-Oct-22 11:32N 54°18' E 009°40'0 0.0
2014-Oct-22 10:20N 54°18' E 009°40'0 0.0
2014-Oct-22 09:32N 54°18' E 009°40'0 0.0
2014-Oct-22 08:20N 54°18' E 009°40'0 0.0
2014-Oct-22 07:32N 54°18' E 009°40'0 0.0
2014-Oct-22 06:32N 54°18' E 009°40'0 0.0
2014-Oct-22 05:26N 54°18' E 009°40'0 0.0
2014-Oct-22 04:26N 54°18' E 009°40'0 0.0
2014-Oct-22 03:32N 54°18' E 009°40'0 0.0
2014-Oct-22 02:32N 54°18' E 009°40'0 0.0
2014-Oct-22 01:32N 54°18' E 009°40'0 0.0
2014-Oct-22 00:32N 54°18' E 009°40'0 0.0
2014-Oct-21 23:32N 54°18' E 009°40'0 0.0
2014-Oct-21 21:32N 54°18' E 009°40'0 0.0
2014-Oct-21 20:32N 54°18' E 009°40'0 0.0
2014-Oct-21 19:32N 54°18' E 009°40'0 0.0
2014-Oct-21 18:32N 54°18' E 009°40'0 0.0
2014-Oct-21 17:26N 54°18' E 009°40'0 0.0
2014-Oct-21 16:32N 54°18' E 009°40'0 0.0
2014-Oct-21 15:33N 54°18' E 009°40'6 6.1
2014-Oct-21 14:33N 54°22' E 009°48'8 7.6
2014-Oct-21 13:33N 54°22' E 010°01'4 4.3
2014-Oct-21 12:34N 54°22' E 010°09'6 6.3
2014-Oct-21 11:34N 54°27' E 010°14'1010.0
2014-Oct-21 10:33N 54°31' E 010°30'1110.8
2014-Oct-21 09:31N 54°33' E 010°49'28 9.5
2014-Oct-21 06:33N 54°30' E 011°37'10 9.5
2014-Oct-21 05:33N 54°28' E 011°53'10 9.4
2014-Oct-21 04:32N 54°29' E 012°10'60 9.9
2014-Oct-20 22:28N 55°00' E 013°38'9 9.9
2014-Oct-20 21:33N 55°04' E 013°52'9 9.4
2014-Oct-20 20:33N 55°08' E 014°07'10 9.7
2014-Oct-20 19:33N 55°15' E 014°18'10 9.7
2014-Oct-20 18:33N 55°23' E 014°29'1010.0
2014-Oct-20 17:33N 55°30' E 014°42'10 9.7
2014-Oct-20 16:33N 55°34' E 014°57'9 9.2
2014-Oct-20 15:33N 55°39' E 015°11'10 9.3
2014-Oct-20 14:28N 55°44' E 015°27'11 9.5
2014-Oct-20 13:18N 55°49' E 015°44'12 9.6
2014-Oct-20 12:04N 55°55' E 016°02'5 9.7
2014-Oct-20 11:33N 55°58' E 016°10'10 9.7
2014-Oct-20 10:32N 56°03' E 016°25'  

Dump ship's entire track history